createdAt,value
2018-12-15T00:00:17.824Z,1016.9
2018-12-15T00:01:17.795Z,1016.91
2018-12-15T00:02:17.773Z,1016.95
2018-12-15T00:03:17.752Z,1016.94
2018-12-15T00:04:17.729Z,1016.94
2018-12-15T00:05:17.705Z,1016.95
2018-12-15T00:06:17.681Z,1016.93
2018-12-15T00:07:17.658Z,1016.95
2018-12-15T00:08:17.639Z,1016.97
2018-12-15T00:09:17.613Z,1016.95
2018-12-15T00:10:17.592Z,1016.99
2018-12-15T00:11:17.569Z,1017.02
2018-12-15T00:12:17.543Z,1017.04
2018-12-15T00:13:17.521Z,1017.02
2018-12-15T00:14:17.499Z,1017.01
2018-12-15T00:15:17.527Z,1017.03
2018-12-15T00:16:17.452Z,1017.03
2018-12-15T00:17:17.430Z,1017.03
2018-12-15T00:18:17.412Z,1017.02
2018-12-15T00:19:17.388Z,1017.05
2018-12-15T00:20:17.374Z,1017.07
2018-12-15T00:21:17.340Z,1017.03
2018-12-15T00:22:17.318Z,1017.09
2018-12-15T00:23:17.293Z,1017.08
2018-12-15T00:24:17.273Z,1017.09
2018-12-15T00:25:17.250Z,1017.08
2018-12-15T00:26:17.227Z,1017.09
2018-12-15T00:27:17.206Z,1017.06
2018-12-15T00:28:17.179Z,1017.05
2018-12-15T00:29:17.158Z,1017.04
2018-12-15T00:30:17.136Z,1017.06
2018-12-15T00:31:17.111Z,1017.05
2018-12-15T00:32:17.090Z,1017.06
2018-12-15T00:33:17.078Z,1017.06
2018-12-15T00:34:17.045Z,1017.07
2018-12-15T00:35:17.021Z,1017.08
2018-12-15T00:36:17.004Z,1017.06
2018-12-15T00:37:16.974Z,1017.03
2018-12-15T00:38:16.952Z,1017.05
2018-12-15T00:39:16.929Z,1017.09
2018-12-15T00:40:16.908Z,1017.1
2018-12-15T00:41:16.884Z,1017.14
2018-12-15T00:42:16.867Z,1017.11
2018-12-15T00:43:16.840Z,1017.08
2018-12-15T00:44:16.823Z,1017.11
2018-12-15T00:45:16.791Z,1017.14
2018-12-15T00:46:16.769Z,1017.11
2018-12-15T00:47:16.747Z,1017.16
2018-12-15T00:48:16.724Z,1017.18
2018-12-15T00:49:16.699Z,1017.19
2018-12-15T00:50:16.677Z,1017.21
2018-12-15T00:51:16.654Z,1017.28
2018-12-15T00:52:16.640Z,1017.28
2018-12-15T00:53:16.631Z,1017.24
2018-12-15T00:54:16.589Z,1017.28
2018-12-15T00:55:16.780Z,1017.3
2018-12-15T00:56:16.543Z,1017.36
2018-12-15T00:57:16.522Z,1017.4
2018-12-15T00:58:16.498Z,1017.41
2018-12-15T00:59:16.472Z,1017.45
2018-12-15T01:00:16.449Z,1017.47
2018-12-15T01:01:16.427Z,1017.5
2018-12-15T01:02:16.404Z,1017.47
2018-12-15T01:03:16.454Z,1017.48
2018-12-15T01:04:16.360Z,1017.47
2018-12-15T01:05:16.335Z,1017.5
2018-12-15T01:06:16.317Z,1017.51
2018-12-15T01:07:16.296Z,1017.46
2018-12-15T01:08:16.269Z,1017.44
2018-12-15T01:09:16.244Z,1017.46
2018-12-15T01:10:16.223Z,1017.46
2018-12-15T01:11:16.198Z,1017.48
2018-12-15T01:12:16.184Z,1017.49
2018-12-15T01:13:16.151Z,1017.44
2018-12-15T01:14:16.130Z,1017.42
2018-12-15T01:15:16.106Z,1017.5
2018-12-15T01:16:16.086Z,1017.46
2018-12-15T01:17:20.402Z,1017.46
2018-12-15T01:18:16.040Z,1017.4
2018-12-15T01:19:16.018Z,1017.39
2018-12-15T01:20:15.992Z,1017.44
2018-12-15T01:21:15.974Z,1017.49
2018-12-15T01:22:15.949Z,1017.51
2018-12-15T01:23:15.922Z,1017.52
2018-12-15T01:24:15.901Z,1017.53
2018-12-15T01:25:15.879Z,1017.56
2018-12-15T01:26:15.856Z,1017.55
2018-12-15T01:27:15.833Z,1017.55
2018-12-15T01:28:15.811Z,1017.56
2018-12-15T01:29:15.787Z,1017.56
2018-12-15T01:30:15.764Z,1017.59
2018-12-15T01:31:15.743Z,1017.57
2018-12-15T01:32:15.721Z,1017.59
2018-12-15T01:33:15.699Z,1017.56
2018-12-15T01:34:15.673Z,1017.63
2018-12-15T01:35:15.652Z,1017.62
2018-12-15T01:36:15.627Z,1017.64
2018-12-15T01:37:15.605Z,1017.63
2018-12-15T01:38:15.585Z,1017.64
2018-12-15T01:39:15.559Z,1017.59
2018-12-15T01:40:15.590Z,1017.64
2018-12-15T01:41:15.585Z,1017.61
2018-12-15T01:42:15.491Z,1017.63
2018-12-15T01:43:15.469Z,1017.64
2018-12-15T01:44:15.444Z,1017.64
2018-12-15T01:45:15.424Z,1017.64
2018-12-15T01:46:15.498Z,1017.64
2018-12-15T01:47:15.389Z,1017.62
2018-12-15T01:48:15.353Z,1017.65
2018-12-15T01:49:15.346Z,1017.61
2018-12-15T01:50:15.308Z,1017.61
2018-12-15T01:51:15.290Z,1017.61
2018-12-15T01:52:15.260Z,1017.63
2018-12-15T01:53:15.237Z,1017.65
2018-12-15T01:54:15.215Z,1017.64
2018-12-15T01:55:15.191Z,1017.68
2018-12-15T01:56:15.167Z,1017.7
2018-12-15T01:57:15.145Z,1017.69
2018-12-15T01:58:15.124Z,1017.72
2018-12-15T01:59:15.100Z,1017.71
2018-12-15T02:00:15.080Z,1017.7
2018-12-15T02:01:15.052Z,1017.73
2018-12-15T02:02:15.030Z,1017.73
2018-12-15T02:03:15.007Z,1017.76
2018-12-15T02:04:14.985Z,1017.75
2018-12-15T02:05:14.966Z,1017.76
2018-12-15T02:06:14.942Z,1017.81
2018-12-15T02:07:14.917Z,1017.8
2018-12-15T02:08:14.895Z,1017.77
2018-12-15T02:09:14.869Z,1017.78
2018-12-15T02:10:14.844Z,1017.82
2018-12-15T02:11:14.822Z,1017.83
2018-12-15T02:12:14.798Z,1017.85
2018-12-15T02:13:14.775Z,1017.83
2018-12-15T02:14:14.755Z,1017.83
2018-12-15T02:15:14.731Z,1017.82
2018-12-15T02:16:14.706Z,1017.89
2018-12-15T02:17:14.681Z,1017.86
2018-12-15T02:18:14.660Z,1017.89
2018-12-15T02:19:14.635Z,1017.86
2018-12-15T02:20:14.613Z,1017.85
2018-12-15T02:21:14.593Z,1017.83
2018-12-15T02:22:14.568Z,1017.83
2018-12-15T02:23:14.544Z,1017.81
2018-12-15T02:24:14.519Z,1017.83
2018-12-15T02:25:14.498Z,1017.8
2018-12-15T02:26:14.475Z,1017.78
2018-12-15T02:27:14.454Z,1017.75
2018-12-15T02:28:14.474Z,1017.77
2018-12-15T02:29:14.408Z,1017.76
2018-12-15T02:30:14.388Z,1017.76
2018-12-15T02:31:14.360Z,1017.75
2018-12-15T02:32:14.337Z,1017.77
2018-12-15T02:33:14.315Z,1017.75
2018-12-15T02:34:14.295Z,1017.76
2018-12-15T02:35:14.267Z,1017.76
2018-12-15T02:36:14.244Z,1017.79
2018-12-15T02:37:14.223Z,1017.76
2018-12-15T02:38:14.201Z,1017.77
2018-12-15T02:39:14.174Z,1017.78
2018-12-15T02:40:14.155Z,1017.76
2018-12-15T02:41:14.921Z,1017.76
2018-12-15T02:42:14.104Z,1017.75
2018-12-15T02:43:14.081Z,1017.77
2018-12-15T02:44:14.061Z,1017.76
2018-12-15T02:45:14.037Z,1017.73
2018-12-15T02:46:14.015Z,1017.75
2018-12-15T02:47:13.996Z,1017.76
2018-12-15T02:48:13.972Z,1017.76
2018-12-15T02:49:13.946Z,1017.75
2018-12-15T02:50:13.923Z,1017.72
2018-12-15T02:51:13.898Z,1017.73
2018-12-15T02:52:13.877Z,1017.75
2018-12-15T02:53:13.852Z,1017.72
2018-12-15T02:54:13.829Z,1017.76
2018-12-15T02:55:13.805Z,1017.73
2018-12-15T02:56:13.784Z,1017.74
2018-12-15T02:57:13.759Z,1017.73
2018-12-15T02:58:13.736Z,1017.7
2018-12-15T02:59:13.715Z,1017.72
2018-12-15T03:00:13.703Z,1017.65
2018-12-15T03:01:13.669Z,1017.65
2018-12-15T03:02:13.651Z,1017.66
2018-12-15T03:03:13.626Z,1017.69
2018-12-15T03:04:13.611Z,1017.66
2018-12-15T03:05:13.586Z,1017.67
2018-12-15T03:06:13.557Z,1017.7
2018-12-15T03:07:13.537Z,1017.7
2018-12-15T03:08:13.509Z,1017.69
2018-12-15T03:09:13.485Z,1017.66
2018-12-15T03:10:13.464Z,1017.68
2018-12-15T03:11:13.440Z,1017.65
2018-12-15T03:12:13.417Z,1017.64
2018-12-15T03:13:13.397Z,1017.64
2018-12-15T03:14:13.374Z,1017.66
2018-12-15T03:15:13.350Z,1017.6
2018-12-15T03:16:13.328Z,1017.65
2018-12-15T03:17:13.304Z,1017.63
2018-12-15T03:18:13.283Z,1017.64
2018-12-15T03:19:13.257Z,1017.66
2018-12-15T03:20:13.237Z,1017.68
2018-12-15T03:21:13.212Z,1017.65
2018-12-15T03:22:13.188Z,1017.63
2018-12-15T03:23:13.169Z,1017.62
2018-12-15T03:24:13.146Z,1017.6
2018-12-15T03:25:13.120Z,1017.63
2018-12-15T03:26:13.099Z,1017.61
2018-12-15T03:27:13.075Z,1017.59
2018-12-15T03:28:13.053Z,1017.59
2018-12-15T03:29:13.031Z,1017.57
2018-12-15T03:30:13.015Z,1017.57
2018-12-15T03:31:12.987Z,1017.56
2018-12-15T03:32:12.968Z,1017.56
2018-12-15T03:33:12.940Z,1017.54
2018-12-15T03:34:12.915Z,1017.55
2018-12-15T03:35:12.902Z,1017.54
2018-12-15T03:36:12.874Z,1017.53
2018-12-15T03:37:12.848Z,1017.5
2018-12-15T03:38:12.828Z,1017.53
2018-12-15T03:39:12.801Z,1017.57
2018-12-15T03:40:12.779Z,1017.56
2018-12-15T03:41:12.962Z,1017.63
2018-12-15T03:42:12.731Z,1017.59
2018-12-15T03:43:12.710Z,1017.58
2018-12-15T03:44:12.741Z,1017.56
2018-12-15T03:45:12.664Z,1017.55
2018-12-15T03:46:12.643Z,1017.55
2018-12-15T03:47:12.622Z,1017.5
2018-12-15T03:48:12.597Z,1017.52
2018-12-15T03:49:12.574Z,1017.48
2018-12-15T03:50:12.553Z,1017.51
2018-12-15T03:51:12.529Z,1017.53
2018-12-15T03:52:12.505Z,1017.54
2018-12-15T03:53:12.486Z,1017.55
2018-12-15T03:54:12.461Z,1017.52
2018-12-15T03:55:12.439Z,1017.52
2018-12-15T03:56:12.413Z,1017.56
2018-12-15T03:57:12.393Z,1017.51
2018-12-15T03:58:12.371Z,1017.44
2018-12-15T03:59:12.347Z,1017.43
2018-12-15T04:00:12.323Z,1017.44
2018-12-15T04:01:12.300Z,1017.41
2018-12-15T04:02:12.278Z,1017.36
2018-12-15T04:03:12.256Z,1017.36
2018-12-15T04:04:12.233Z,1017.35
2018-12-15T04:05:12.211Z,1017.36
2018-12-15T04:06:12.190Z,1017.33
2018-12-15T04:07:12.163Z,1017.32
2018-12-15T04:08:12.142Z,1017.33
2018-12-15T04:09:12.119Z,1017.3
2018-12-15T04:10:12.097Z,1017.28
2018-12-15T04:11:12.073Z,1017.31
2018-12-15T04:12:12.051Z,1017.34
2018-12-15T04:13:12.053Z,1017.33
2018-12-15T04:14:12.088Z,1017.33
2018-12-15T04:15:12.137Z,1017.33
2018-12-15T04:16:12.298Z,1017.34
2018-12-15T04:17:12.151Z,1017.33
2018-12-15T04:18:12.191Z,1017.36
2018-12-15T04:19:12.347Z,1017.32
2018-12-15T04:20:11.911Z,1017.31
2018-12-15T04:21:11.854Z,1017.37
2018-12-15T04:22:11.825Z,1017.36
2018-12-15T04:23:11.798Z,1017.4
2018-12-15T04:24:11.776Z,1017.35
2018-12-15T04:25:11.752Z,1017.38
2018-12-15T04:26:11.731Z,1017.38
2018-12-15T04:27:11.712Z,1017.34
2018-12-15T04:28:11.683Z,1017.38
2018-12-15T04:29:11.660Z,1017.39
2018-12-15T04:30:11.638Z,1017.35
2018-12-15T04:31:11.618Z,1017.36
2018-12-15T04:32:11.594Z,1017.33
2018-12-15T04:33:11.570Z,1017.34
2018-12-15T04:34:11.547Z,1017.37
2018-12-15T04:35:11.524Z,1017.29
2018-12-15T04:36:11.502Z,1017.31
2018-12-15T04:37:11.482Z,1017.35
2018-12-15T04:38:11.474Z,1017.28
2018-12-15T04:39:11.436Z,1017.28
2018-12-15T04:40:11.409Z,1017.27
2018-12-15T04:41:11.387Z,1017.3
2018-12-15T04:42:11.365Z,1017.25
2018-12-15T04:43:11.343Z,1017.23
2018-12-15T04:44:11.320Z,1017.25
2018-12-15T04:45:11.297Z,1017.2
2018-12-15T04:46:11.279Z,1017.26
2018-12-15T04:47:11.251Z,1017.23
2018-12-15T04:48:11.558Z,1017.24
2018-12-15T04:49:11.206Z,1017.18
2018-12-15T04:50:11.184Z,1017.2
2018-12-15T04:51:11.163Z,1017.21
2018-12-15T04:52:11.138Z,1017.18
2018-12-15T04:53:11.115Z,1017.23
2018-12-15T04:54:11.090Z,1017.28
2018-12-15T04:55:11.069Z,1017.22
2018-12-15T04:56:11.046Z,1017.26
2018-12-15T04:57:11.020Z,1017.29
2018-12-15T04:58:10.997Z,1017.25
2018-12-15T04:59:10.982Z,1017.27
2018-12-15T05:00:10.954Z,1017.26
2018-12-15T05:01:10.928Z,1017.22
2018-12-15T05:02:10.913Z,1017.26
2018-12-15T05:03:10.884Z,1017.25
2018-12-15T05:04:10.860Z,1017.28
2018-12-15T05:05:10.838Z,1017.24
2018-12-15T05:06:10.818Z,1017.22
2018-12-15T05:07:10.795Z,1017.22
2018-12-15T05:08:10.773Z,1017.23
2018-12-15T05:09:10.748Z,1017.2
2018-12-15T05:10:10.722Z,1017.21
2018-12-15T05:11:10.701Z,1017.17
2018-12-15T05:12:10.680Z,1017.22
2018-12-15T05:13:10.661Z,1017.18
2018-12-15T05:14:10.631Z,1017.23
2018-12-15T05:15:10.609Z,1017.23
2018-12-15T05:16:10.587Z,1017.21
2018-12-15T05:17:10.564Z,1017.19
2018-12-15T05:18:10.686Z,1017.18
2018-12-15T05:19:10.527Z,1017.24
2018-12-15T05:20:10.494Z,1017.2
2018-12-15T05:21:10.475Z,1017.19
2018-12-15T05:22:10.450Z,1017.26
2018-12-15T05:23:10.426Z,1017.28
2018-12-15T05:24:10.409Z,1017.29
2018-12-15T05:25:10.384Z,1017.28
2018-12-15T05:26:10.359Z,1017.26
2018-12-15T05:27:10.356Z,1017.29
2018-12-15T05:28:10.312Z,1017.26
2018-12-15T05:29:10.289Z,1017.28
2018-12-15T05:30:10.267Z,1017.26
2018-12-15T05:31:10.249Z,1017.32
2018-12-15T05:32:10.223Z,1017.28
2018-12-15T05:33:10.201Z,1017.25
2018-12-15T05:34:10.174Z,1017.25
2018-12-15T05:35:10.155Z,1017.32
2018-12-15T05:36:10.130Z,1017.28
2018-12-15T05:37:10.118Z,1017.3
2018-12-15T05:38:10.083Z,1017.34
2018-12-15T05:39:10.064Z,1017.33
2018-12-15T05:40:10.041Z,1017.32
2018-12-15T05:41:10.218Z,1017.3
2018-12-15T05:42:09.995Z,1017.31
2018-12-15T05:43:09.972Z,1017.32
2018-12-15T05:44:09.946Z,1017.33
2018-12-15T05:45:09.925Z,1017.3
2018-12-15T05:46:09.905Z,1017.3
2018-12-15T05:47:09.879Z,1017.29
2018-12-15T05:48:09.859Z,1017.32
2018-12-15T05:49:09.881Z,1017.27
2018-12-15T05:50:09.809Z,1017.27
2018-12-15T05:51:09.790Z,1017.28
2018-12-15T05:52:09.773Z,1017.3
2018-12-15T05:53:09.749Z,1017.27
2018-12-15T05:54:09.720Z,1017.28
2018-12-15T05:55:09.696Z,1017.27
2018-12-15T05:56:09.674Z,1017.27
2018-12-15T05:57:09.650Z,1017.29
2018-12-15T05:58:09.631Z,1017.3
2018-12-15T05:59:09.609Z,1017.28
2018-12-15T06:00:09.582Z,1017.29
2018-12-15T06:01:09.560Z,1017.34
2018-12-15T06:02:09.538Z,1017.32
2018-12-15T06:03:09.512Z,1017.31
2018-12-15T06:04:09.494Z,1017.33
2018-12-15T06:05:09.466Z,1017.29
2018-12-15T06:06:09.448Z,1017.31
2018-12-15T06:07:09.421Z,1017.33
2018-12-15T06:08:09.403Z,1017.29
2018-12-15T06:09:09.374Z,1017.27
2018-12-15T06:10:09.351Z,1017.33
2018-12-15T06:11:09.331Z,1017.29
2018-12-15T06:12:09.309Z,1017.33
2018-12-15T06:13:09.286Z,1017.31
2018-12-15T06:14:09.267Z,1017.33
2018-12-15T06:15:09.236Z,1017.34
2018-12-15T06:16:09.214Z,1017.35
2018-12-15T06:17:09.193Z,1017.37
2018-12-15T06:18:09.167Z,1017.34
2018-12-15T06:19:09.148Z,1017.35
2018-12-15T06:20:09.122Z,1017.36
2018-12-15T06:21:09.101Z,1017.36
2018-12-15T06:22:09.080Z,1017.33
2018-12-15T06:23:09.053Z,1017.36
2018-12-15T06:24:09.047Z,1017.41
2018-12-15T06:25:09.007Z,1017.34
2018-12-15T06:26:08.986Z,1017.34
2018-12-15T06:27:08.961Z,1017.35
2018-12-15T06:28:08.941Z,1017.3
2018-12-15T06:29:08.925Z,1017.22
2018-12-15T06:30:08.897Z,1017.31
2018-12-15T06:31:08.870Z,1017.29
2018-12-15T06:32:08.850Z,1017.3
2018-12-15T06:33:08.824Z,1017.29
2018-12-15T06:34:08.802Z,1017.33
2018-12-15T06:35:08.781Z,1017.32
2018-12-15T06:36:08.753Z,1017.33
2018-12-15T06:37:08.729Z,1017.28
2018-12-15T06:38:08.708Z,1017.31
2018-12-15T06:39:08.686Z,1017.32
2018-12-15T06:40:08.662Z,1017.3
2018-12-15T06:41:08.638Z,1017.29
2018-12-15T06:42:08.617Z,1017.39
2018-12-15T06:43:08.593Z,1017.34
2018-12-15T06:44:08.572Z,1017.34
2018-12-15T06:45:08.546Z,1017.32
2018-12-15T06:46:08.525Z,1017.34
2018-12-15T06:47:08.500Z,1017.3
2018-12-15T06:48:08.480Z,1017.33
2018-12-15T06:49:08.455Z,1017.37
2018-12-15T06:50:08.432Z,1017.32
2018-12-15T06:51:08.409Z,1017.34
2018-12-15T06:52:08.388Z,1017.3
2018-12-15T06:53:08.363Z,1017.32
2018-12-15T06:54:08.339Z,1017.3
2018-12-15T06:55:08.318Z,1017.29
2018-12-15T06:56:08.294Z,1017.28
2018-12-15T06:57:08.300Z,1017.27
2018-12-15T06:58:08.246Z,1017.25
2018-12-15T06:59:08.234Z,1017.27
2018-12-15T07:00:08.201Z,1017.27
2018-12-15T07:01:08.177Z,1017.27
2018-12-15T07:02:08.156Z,1017.29
2018-12-15T07:03:08.136Z,1017.28
2018-12-15T07:04:08.110Z,1017.25
2018-12-15T07:05:08.086Z,1017.28
2018-12-15T07:06:08.163Z,1017.23
2018-12-15T07:07:08.046Z,1017.25
2018-12-15T07:08:08.018Z,1017.24
2018-12-15T07:09:07.994Z,1017.19
2018-12-15T07:10:07.973Z,1017.23
2018-12-15T07:11:07.948Z,1017.25
2018-12-15T07:12:07.924Z,1017.29
2018-12-15T07:13:07.902Z,1017.29
2018-12-15T07:14:07.880Z,1017.31
2018-12-15T07:15:07.859Z,1017.31
2018-12-15T07:16:07.838Z,1017.29
2018-12-15T07:17:07.811Z,1017.26
2018-12-15T07:18:07.787Z,1017.25
2018-12-15T07:19:07.764Z,1017.26
2018-12-15T07:20:07.743Z,1017.29
2018-12-15T07:21:07.730Z,1017.27
2018-12-15T07:22:07.701Z,1017.24
2018-12-15T07:23:07.673Z,1017.25
2018-12-15T07:24:07.650Z,1017.26
2018-12-15T07:25:07.626Z,1017.31
2018-12-15T07:26:07.604Z,1017.3
2018-12-15T07:27:07.580Z,1017.25
2018-12-15T07:28:07.560Z,1017.3
2018-12-15T07:29:07.533Z,1017.31
2018-12-15T07:30:07.513Z,1017.3
2018-12-15T07:31:07.487Z,1017.3
2018-12-15T07:32:07.465Z,1017.35
2018-12-15T07:33:07.443Z,1017.37
2018-12-15T07:34:07.422Z,1017.39
2018-12-15T07:35:07.396Z,1017.41
2018-12-15T07:36:07.378Z,1017.42
2018-12-15T07:37:07.351Z,1017.43
2018-12-15T07:38:07.328Z,1017.41
2018-12-15T07:39:07.312Z,1017.44
2018-12-15T07:40:07.283Z,1017.46
2018-12-15T07:41:07.461Z,1017.47
2018-12-15T07:42:07.237Z,1017.46
2018-12-15T07:43:07.214Z,1017.48
2018-12-15T07:44:07.192Z,1017.47
2018-12-15T07:45:07.169Z,1017.46
2018-12-15T07:46:07.149Z,1017.44
2018-12-15T07:47:07.122Z,1017.44
2018-12-15T07:48:07.099Z,1017.43
2018-12-15T07:49:07.094Z,1017.42
2018-12-15T07:50:07.057Z,1017.44
2018-12-15T07:51:07.101Z,1017.42
2018-12-15T07:52:07.010Z,1017.47
2018-12-15T07:53:06.987Z,1017.45
2018-12-15T07:54:06.961Z,1017.45
2018-12-15T07:55:06.941Z,1017.45
2018-12-15T07:56:06.916Z,1017.42
2018-12-15T07:57:06.892Z,1017.43
2018-12-15T07:58:06.871Z,1017.42
2018-12-15T07:59:06.848Z,1017.45
2018-12-15T08:00:06.824Z,1017.42
2018-12-15T08:01:06.804Z,1017.43
2018-12-15T08:02:06.824Z,1017.42
2018-12-15T08:03:06.757Z,1017.44
2018-12-15T08:04:06.732Z,1017.43
2018-12-15T08:05:06.708Z,1017.45
2018-12-15T08:06:06.687Z,1017.44
2018-12-15T08:07:06.663Z,1017.41
2018-12-15T08:08:06.641Z,1017.41
2018-12-15T08:09:06.621Z,1017.46
2018-12-15T08:10:06.599Z,1017.46
2018-12-15T08:11:06.571Z,1017.4
2018-12-15T08:12:06.550Z,1017.44
2018-12-15T08:13:06.527Z,1017.47
2018-12-15T08:14:06.504Z,1017.46
2018-12-15T08:15:06.479Z,1017.51
2018-12-15T08:16:06.458Z,1017.52
2018-12-15T08:17:06.434Z,1017.54
2018-12-15T08:18:06.413Z,1017.59
2018-12-15T08:19:06.395Z,1017.59
2018-12-15T08:20:06.364Z,1017.59
2018-12-15T08:21:06.347Z,1017.54
2018-12-15T08:22:06.320Z,1017.6
2018-12-15T08:23:06.300Z,1017.57
2018-12-15T08:24:06.280Z,1017.58
2018-12-15T08:25:06.250Z,1017.56
2018-12-15T08:26:06.233Z,1017.59
2018-12-15T08:27:06.205Z,1017.6
2018-12-15T08:28:06.183Z,1017.63
2018-12-15T08:29:06.161Z,1017.63
2018-12-15T08:30:06.158Z,1017.65
2018-12-15T08:31:06.115Z,1017.64
2018-12-15T08:32:06.090Z,1017.64
2018-12-15T08:33:06.067Z,1017.64
2018-12-15T08:34:06.043Z,1017.61
2018-12-15T08:35:06.021Z,1017.63
2018-12-15T08:36:06.001Z,1017.65
2018-12-15T08:37:05.973Z,1017.62
2018-12-15T08:38:05.952Z,1017.64
2018-12-15T08:39:05.927Z,1017.64
2018-12-15T08:40:05.905Z,1017.64
2018-12-15T08:41:05.882Z,1017.63
2018-12-15T08:42:05.857Z,1017.63
2018-12-15T08:43:05.836Z,1017.67
2018-12-15T08:44:05.816Z,1017.67
2018-12-15T08:45:05.789Z,1017.64
2018-12-15T08:46:05.768Z,1017.72
2018-12-15T08:47:05.746Z,1017.7
2018-12-15T08:48:05.720Z,1017.67
2018-12-15T08:49:05.704Z,1017.67
2018-12-15T08:50:05.675Z,1017.7
2018-12-15T08:51:05.651Z,1017.68
2018-12-15T08:52:05.627Z,1017.7
2018-12-15T08:53:05.611Z,1017.7
2018-12-15T08:54:05.580Z,1017.68
2018-12-15T08:55:05.611Z,1017.67
2018-12-15T08:56:05.535Z,1017.66
2018-12-15T08:57:05.515Z,1017.71
2018-12-15T08:58:05.492Z,1017.71
2018-12-15T08:59:05.465Z,1017.75
2018-12-15T09:00:05.442Z,1017.75
2018-12-15T09:01:05.420Z,1017.75
2018-12-15T09:02:05.397Z,1017.74
2018-12-15T09:03:05.373Z,1017.79
2018-12-15T09:04:05.354Z,1017.76
2018-12-15T09:05:05.334Z,1017.76
2018-12-15T09:06:05.308Z,1017.72
2018-12-15T09:07:05.282Z,1017.72
2018-12-15T09:08:05.264Z,1017.7
2018-12-15T09:09:05.238Z,1017.71
2018-12-15T09:10:05.212Z,1017.74
2018-12-15T09:11:05.190Z,1017.74
2018-12-15T09:12:05.170Z,1017.78
2018-12-15T09:13:05.148Z,1017.8
2018-12-15T09:14:05.122Z,1017.78
2018-12-15T09:15:05.098Z,1017.76
2018-12-15T09:16:05.074Z,1017.78
2018-12-15T09:17:05.051Z,1017.72
2018-12-15T09:18:05.027Z,1017.75
2018-12-15T09:19:10.970Z,1017.75
2018-12-15T09:20:04.987Z,1017.72
2018-12-15T09:21:04.962Z,1017.72
2018-12-15T09:22:11.298Z,1017.72
2018-12-15T09:23:04.936Z,1017.76
2018-12-15T09:24:04.902Z,1017.73
2018-12-15T09:25:04.868Z,1017.8
2018-12-15T09:26:04.845Z,1017.8
2018-12-15T09:27:04.859Z,1017.81
2018-12-15T09:28:04.840Z,1017.8
2018-12-15T09:29:04.779Z,1017.81
2018-12-15T09:30:04.757Z,1017.82
2018-12-15T09:31:04.732Z,1017.83
2018-12-15T09:32:04.708Z,1017.89
2018-12-15T09:33:04.687Z,1017.82
2018-12-15T09:34:04.660Z,1017.86
2018-12-15T09:35:04.638Z,1017.86
2018-12-15T09:36:04.616Z,1017.9
2018-12-15T09:37:04.628Z,1017.88
2018-12-15T09:38:04.568Z,1017.85
2018-12-15T09:39:04.544Z,1017.84
2018-12-15T09:40:04.527Z,1017.86
2018-12-15T09:41:04.704Z,1017.86
2018-12-15T09:42:04.477Z,1017.85
2018-12-15T09:43:04.452Z,1017.86
2018-12-15T09:44:04.429Z,1017.92
2018-12-15T09:45:04.407Z,1017.88
2018-12-15T09:46:04.384Z,1017.91
2018-12-15T09:47:04.360Z,1017.91
2018-12-15T09:48:04.436Z,1017.91
2018-12-15T09:49:04.323Z,1017.9
2018-12-15T09:50:04.301Z,1017.91
2018-12-15T09:51:04.271Z,1017.86
2018-12-15T09:52:04.245Z,1017.87
2018-12-15T09:53:04.222Z,1017.9
2018-12-15T09:54:04.198Z,1017.87
2018-12-15T09:55:04.183Z,1017.88
2018-12-15T09:56:04.170Z,1017.87
2018-12-15T09:57:04.133Z,1017.87
2018-12-15T09:58:04.108Z,1017.89
2018-12-15T09:59:04.083Z,1017.91
2018-12-15T10:00:04.063Z,1017.87
2018-12-15T10:01:04.037Z,1017.89
2018-12-15T10:02:04.013Z,1017.85
2018-12-15T10:03:03.993Z,1017.87
2018-12-15T10:04:03.971Z,1017.85
2018-12-15T10:05:03.946Z,1017.81
2018-12-15T10:06:03.925Z,1017.78
2018-12-15T10:07:03.902Z,1017.81
2018-12-15T10:08:03.880Z,1017.81
2018-12-15T10:09:03.860Z,1017.75
2018-12-15T10:10:03.831Z,1017.76
2018-12-15T10:11:03.809Z,1017.77
2018-12-15T10:12:03.794Z,1017.72
2018-12-15T10:13:03.764Z,1017.72
2018-12-15T10:14:03.740Z,1017.72
2018-12-15T10:15:03.714Z,1017.78
2018-12-15T10:16:03.690Z,1017.76
2018-12-15T10:17:03.672Z,1017.7
2018-12-15T10:18:03.645Z,1017.71
2018-12-15T10:19:03.624Z,1017.72
2018-12-15T10:20:03.601Z,1017.7
2018-12-15T10:21:03.578Z,1017.71
2018-12-15T10:22:03.554Z,1017.71
2018-12-15T10:23:03.534Z,1017.65
2018-12-15T10:24:03.513Z,1017.61
2018-12-15T10:25:03.485Z,1017.63
2018-12-15T10:26:03.461Z,1017.59
2018-12-15T10:27:03.439Z,1017.54
2018-12-15T10:28:03.416Z,1017.55
2018-12-15T10:29:03.393Z,1017.51
2018-12-15T10:30:03.371Z,1017.52
2018-12-15T10:31:03.350Z,1017.5
2018-12-15T10:32:03.325Z,1017.51
2018-12-15T10:33:03.302Z,1017.47
2018-12-15T10:34:03.276Z,1017.43
2018-12-15T10:35:03.288Z,1017.41
2018-12-15T10:36:03.231Z,1017.38
2018-12-15T10:37:04.434Z,1017.36
2018-12-15T10:38:03.188Z,1017.37
2018-12-15T10:39:03.170Z,1017.36
2018-12-15T10:40:03.143Z,1017.36
2018-12-15T10:41:03.120Z,1017.34
2018-12-15T10:42:03.097Z,1017.3
2018-12-15T10:43:03.080Z,1017.29
2018-12-15T10:44:03.096Z,1017.3
2018-12-15T10:45:03.028Z,1017.27
2018-12-15T10:46:03.005Z,1017.24
2018-12-15T10:47:02.980Z,1017.31
2018-12-15T10:48:02.957Z,1017.25
2018-12-15T10:49:02.931Z,1017.21
2018-12-15T10:50:02.913Z,1017.19
2018-12-15T10:51:02.896Z,1017.19
2018-12-15T10:52:02.870Z,1017.21
2018-12-15T10:53:02.841Z,1017.22
2018-12-15T10:54:02.821Z,1017.26
2018-12-15T10:55:02.806Z,1017.14
2018-12-15T10:56:02.770Z,1017.17
2018-12-15T10:57:02.749Z,1017.14
2018-12-15T10:58:02.728Z,1017.12
2018-12-15T10:59:02.703Z,1017.09
2018-12-15T11:00:02.682Z,1017.08
2018-12-15T11:01:02.660Z,1017.07
2018-12-15T11:02:02.638Z,1017.08
2018-12-15T11:03:02.610Z,1017.06
2018-12-15T11:04:02.588Z,1017.08
2018-12-15T11:05:02.567Z,1017.1
2018-12-15T11:06:02.542Z,1017.07
2018-12-15T11:07:02.524Z,1017.04
2018-12-15T11:08:02.496Z,1017.08
2018-12-15T11:09:02.476Z,1017.03
2018-12-15T11:10:02.462Z,1017.03
2018-12-15T11:11:02.428Z,1016.99
2018-12-15T11:12:02.409Z,1016.96
2018-12-15T11:13:02.385Z,1017.01
2018-12-15T11:14:02.361Z,1016.98
2018-12-15T11:15:02.341Z,1016.96
2018-12-15T11:16:02.314Z,1016.93
2018-12-15T11:17:02.289Z,1017.01
2018-12-15T11:18:02.270Z,1016.98
2018-12-15T11:19:02.244Z,1017
2018-12-15T11:20:02.221Z,1016.98
2018-12-15T11:21:02.203Z,1016.98
2018-12-15T11:22:02.177Z,1016.94
2018-12-15T11:23:02.161Z,1016.96
2018-12-15T11:24:02.132Z,1016.93
2018-12-15T11:25:02.112Z,1016.92
2018-12-15T11:26:02.086Z,1016.92
2018-12-15T11:27:02.065Z,1016.91
2018-12-15T11:28:02.041Z,1016.92
2018-12-15T11:29:02.019Z,1016.92
2018-12-15T11:30:01.997Z,1016.9
2018-12-15T11:31:01.978Z,1016.89
2018-12-15T11:32:01.949Z,1016.91
2018-12-15T11:33:01.925Z,1016.87
2018-12-15T11:34:01.903Z,1016.84
2018-12-15T11:35:01.885Z,1016.83
2018-12-15T11:36:01.858Z,1016.85
2018-12-15T11:37:01.839Z,1016.79
2018-12-15T11:38:01.814Z,1016.72
2018-12-15T11:39:01.787Z,1016.71
2018-12-15T11:40:01.771Z,1016.67
2018-12-15T11:41:01.751Z,1016.66
2018-12-15T11:42:01.722Z,1016.65
2018-12-15T11:43:01.697Z,1016.61
2018-12-15T11:44:01.674Z,1016.59
2018-12-15T11:45:01.753Z,1016.57
2018-12-15T11:46:01.630Z,1016.55
2018-12-15T11:47:01.607Z,1016.55
2018-12-15T11:48:01.583Z,1016.58
2018-12-15T11:49:01.560Z,1016.56
2018-12-15T11:50:01.540Z,1016.56
2018-12-15T11:51:01.516Z,1016.56
2018-12-15T11:52:01.492Z,1016.57
2018-12-15T11:53:01.468Z,1016.55
2018-12-15T11:54:01.448Z,1016.53
2018-12-15T11:55:01.431Z,1016.49
2018-12-15T11:56:01.399Z,1016.49
2018-12-15T11:57:01.378Z,1016.47
2018-12-15T11:58:01.361Z,1016.46
2018-12-15T11:59:01.331Z,1016.5
2018-12-15T12:00:01.312Z,1016.48
2018-12-15T12:01:01.285Z,1016.46
2018-12-15T12:02:01.262Z,1016.45
2018-12-15T12:03:01.244Z,1016.38
2018-12-15T12:04:01.239Z,1016.36
2018-12-15T12:05:01.195Z,1016.41
2018-12-15T12:06:01.170Z,1016.38
2018-12-15T12:07:01.150Z,1016.36